^^
Grace C. Lehan Memorial Weather Station Historical Data
Daily Summary for May 2, 2021 Units:  English    Metric   Both
Daily Weekly Monthly Yearly
  High: Low: Average:
Temperature: 80.3 °F 62.6 °F 71.8 °F
Dew Point: 64.4 °F 57.8 °F 62 °F
Humidity: 95.2% 51.8% 73%
Wind Speed: 6.8mph 0mph 1.6mph
Wind Gust: 17mph - -
Wind- - WNW
Pressure: 30.03 in 29.78 in -
Precipitation: 0.00 in    
 
 
Tabular Data for May 2, 2021
Time Temperature Dew Point Pressure Wind Wind Speed Wind Gust Humidity Rainfall Rate (Hourly) solar
00:00 65.8 °F 63.4 °F 29.79 in Calm     92% 0.00 in 0 W/m2
00:09 65.7 °F 63.3 °F 29.79 in Calm     91.7% 0.00 in 0 W/m2
00:14 65.6 °F 62.9 °F 29.79 in Calm     91.1% 0.00 in 0 W/m2
00:19 65.4 °F 62.6 °F 29.79 in Calm     90.6% 0.00 in 0 W/m2
00:24 65.4 °F 62.4 °F 29.79 in Calm     90% 0.00 in 0 W/m2
00:29 65.4 °F 62.4 °F 29.79 in Calm     90% 0.00 in 0 W/m2
00:34 65.5 °F 62.5 °F 29.79 in Calm     90% 0.00 in 0 W/m2
00:39 65.5 °F 62.8 °F 29.79 in Calm     91% 0.00 in 0 W/m2
00:44 65.5 °F 62.8 °F 29.79 in Calm     91.1% 0.00 in 0 W/m2
00:49 65.4 °F 62.8 °F 29.80 in Calm     91.2% 0.00 in 0 W/m2
00:54 65.4 °F 62.7 °F 29.80 in Calm     91% 0.00 in 0 W/m2
00:59 65.4 °F 62.7 °F 29.80 in Calm     91% 0.00 in 0 W/m2
01:04 65.5 °F 62.9 °F 29.80 in Calm     91.4% 0.00 in 0 W/m2
01:09 65.5 °F 63.1 °F 29.80 in Calm     92% 0.00 in 0 W/m2
01:14 65.4 °F 63 °F 29.80 in Calm     92% 0.00 in 0 W/m2
01:19 65.3 °F 62.9 °F 29.80 in Calm     92% 0.00 in 0 W/m2
01:24 65.3 °F 62.9 °F 29.80 in Calm     92% 0.00 in 0 W/m2
01:29 65.4 °F 63 °F 29.80 in Calm     92% 0.00 in 0 W/m2
01:34 65.4 °F 63 °F 29.80 in Calm     92% 0.00 in 0 W/m2
01:39 65.4 °F 63 °F 29.80 in Calm     92% 0.00 in 0 W/m2
01:44 65.3 °F 63 °F 29.80 in Calm     92.3% 0.00 in 0 W/m2
01:49 65.3 °F 63.2 °F 29.81 in Calm     93% 0.00 in 0 W/m2
01:54 65.3 °F 63.2 °F 29.80 in Calm     93% 0.00 in 0 W/m2
01:59 65.3 °F 63.2 °F 29.80 in Calm     93% 0.00 in 0 W/m2
02:04 65.4 °F 63.3 °F 29.80 in Calm     93% 0.00 in 0 W/m2
02:09 65.4 °F 63.3 °F 29.80 in Calm     93% 0.00 in 0 W/m2
02:14 65.4 °F 63.3 °F 29.80 in Calm     93% 0.00 in 0 W/m2
02:19 65.3 °F 63.3 °F 29.80 in Calm     93% 0.00 in 0 W/m2
02:24 65.3 °F 63.2 °F 29.80 in Calm     93% 0.00 in 0 W/m2
02:29 65.2 °F 63.2 °F 29.79 in Calm     93% 0.00 in 0 W/m2
02:34 65.2 °F 63.1 °F 29.79 in Calm     93% 0.00 in 0 W/m2
02:39 65.1 °F 63 °F 29.79 in Calm     93% 0.00 in 0 W/m2
02:44 65 °F 62.9 °F 29.79 in Calm     93% 0.00 in 0 W/m2
02:49 64.9 °F 62.8 °F 29.79 in Calm     93% 0.00 in 0 W/m2
02:54 64.9 °F 62.8 °F 29.79 in Calm     93% 0.00 in 0 W/m2
02:59 64.9 °F 62.8 °F 29.79 in Calm     93% 0.00 in 0 W/m2
03:04 64.9 °F 62.8 °F 29.79 in Calm     93% 0.00 in 0 W/m2
03:09 64.9 °F 62.8 °F 29.79 in Calm     93% 0.00 in 0 W/m2
03:14 64.9 °F 63.1 °F 29.79 in Calm     93.9% 0.00 in 0 W/m2
03:19 64.9 °F 63.1 °F 29.79 in Calm     94% 0.00 in 0 W/m2
03:24 64.9 °F 63.1 °F 29.79 in Calm     94% 0.00 in 0 W/m2
03:29 64.9 °F 63.1 °F 29.79 in Calm     94% 0.00 in 0 W/m2
03:34 64.9 °F 63.1 °F 29.79 in Calm     94% 0.00 in 0 W/m2
03:39 64.9 °F 63.1 °F 29.78 in Calm     94% 0.00 in 0 W/m2
03:44 64.9 °F 63.1 °F 29.78 in Calm     94% 0.00 in 0 W/m2
03:49 64.8 °F 63 °F 29.78 in Calm     94% 0.00 in 0 W/m2
03:54 64.7 °F 63 °F 29.78 in Calm     94% 0.00 in 0 W/m2
03:59 64.6 °F 62.9 °F 29.79 in Calm     94% 0.00 in 0 W/m2
04:00 64.6 °F 62.8 °F 29.78 in Calm     94% 0.00 in 0 W/m2
04:09 64.5 °F 62.7 °F 29.79 in Calm     94% 0.00 in 0 W/m2
04:14 64.4 °F 62.6 °F 29.80 in Calm     94% 0.00 in 0 W/m2
04:19 64.4 °F 62.6 °F 29.80 in Calm     94% 0.00 in 0 W/m2
04:24 64.4 °F 62.6 °F 29.80 in Calm     94% 0.00 in 0 W/m2
04:29 64.4 °F 62.6 °F 29.79 in Calm     94% 0.00 in 0 W/m2
04:34 64.3 °F 62.6 °F 29.80 in Calm     94% 0.00 in 0 W/m2
04:39 64.3 °F 62.5 °F 29.80 in Calm     94% 0.00 in 0 W/m2
04:44 64.2 °F 62.4 °F 29.79 in Calm     94% 0.00 in 0 W/m2
04:49 64.1 °F 62.3 °F 29.79 in Calm     94% 0.00 in 0 W/m2
04:54 64 °F 62.2 °F 29.79 in Calm     94% 0.00 in 0 W/m2
04:59 63.9 °F 62.1 °F 29.79 in Calm     94% 0.00 in 0 W/m2
05:04 63.7 °F 62 °F 29.79 in Calm     94% 0.00 in 0 W/m2
05:09 63.6 °F 61.8 °F 29.80 in Calm     94% 0.00 in 0 W/m2
05:14 63.5 °F 61.7 °F 29.80 in Calm     94% 0.00 in 0 W/m2
05:19 63.3 °F 61.6 °F 29.80 in Calm     94% 0.00 in 0 W/m2
05:24 63.2 °F 61.5 °F 29.80 in Calm     94% 0.00 in 0 W/m2
05:29 63.1 °F 61.4 °F 29.80 in Calm     94% 0.00 in 0 W/m2
05:34 63 °F 61.3 °F 29.80 in Calm     94% 0.00 in 0 W/m2
05:39 62.9 °F 61.2 °F 29.81 in Calm     94% 0.00 in 0 W/m2
05:44 62.9 °F 61.1 °F 29.81 in Calm     94% 0.00 in 0 W/m2
05:49 62.9 °F 61.2 °F 29.81 in Calm     94% 0.00 in 0 W/m2
05:54 62.9 °F 61.3 °F 29.81 in Calm     94.3% 0.00 in 0 W/m2
05:59 62.9 °F 61.2 °F 29.81 in Calm   1 mph 94% 0.00 in 5 W/m2
06:04 62.9 °F 61.1 °F 29.81 in Calm   1 mph 94% 0.00 in 7 W/m2
06:09 62.7 °F 61 °F 29.81 in Calm     94% 0.00 in 11 W/m2
06:14 62.6 °F 60.9 °F 29.82 in Calm     94% 0.00 in 14 W/m2
06:19 62.6 °F 60.8 °F 29.82 in Calm     94% 0.00 in 16 W/m2
06:24 62.6 °F 60.8 °F 29.82 in Calm     94% 0.00 in 18 W/m2
06:29 62.6 °F 61 °F 29.82 in Calm     94.7% 0.00 in 19 W/m2
06:34 62.6 °F 61.2 °F 29.82 in Calm     95% 0.00 in 21 W/m2
06:39 62.7 °F 61.3 °F 29.82 in Calm     95% 0.00 in 26 W/m2
06:44 62.8 °F 61.4 °F 29.83 in Calm     95% 0.00 in 32 W/m2
06:49 62.9 °F 61.4 °F 29.83 in Calm     95% 0.00 in 42 W/m2
06:54 63.1 °F 61.6 °F 29.83 in Calm     95% 0.00 in 95 W/m2
06:59 63.3 °F 61.9 °F 29.83 in Calm     95% 0.00 in 130 W/m2
07:04 63.7 °F 62.3 °F 29.83 in Calm     95% 0.00 in 144 W/m2
07:09 64.2 °F 62.8 °F 29.83 in SSW 0.1 mph 2 mph 95.2% 0.00 in 155 W/m2
07:14 64.8 °F 63.3 °F 29.83 in Calm   2 mph 95% 0.00 in 167 W/m2
07:19 65.5 °F 64 °F 29.84 in SSW 0.1 mph 3 mph 95% 0.00 in 183 W/m2
07:24 66.1 °F 64.1 °F 29.84 in SW 0.3 mph 3 mph 93.2% 0.00 in 204 W/m2
07:29 66.9 °F 64 °F 29.84 in WNW 0.1 mph 3 mph 90.6% 0.00 in 221 W/m2
07:34 67.6 °F 63.9 °F 29.84 in Calm   3 mph 88% 0.00 in 241 W/m2
07:39 68.3 °F 64.1 °F 29.84 in Calm     86.6% 0.00 in 262 W/m2
07:44 68.8 °F 64.1 °F 29.84 in Calm     85% 0.00 in 274 W/m2
07:49 69.2 °F 63.8 °F 29.84 in Calm     82.8% 0.00 in 292 W/m2
07:54 69.6 °F 63.8 °F 29.84 in Calm     81.7% 0.00 in 316 W/m2
07:59 70 °F 64.2 °F 29.84 in WNW 0.2 mph 3 mph 81.7% 0.00 in 329 W/m2
08:00 70.2 °F 64.1 °F 29.84 in Calm   3 mph 81% 0.00 in 329 W/m2
08:09 70.5 °F 64.2 °F 29.84 in WNW 2.3 mph 10 mph 80.3% 0.00 in 362 W/m2
08:14 70.6 °F 63.5 °F 29.84 in WNW 2.7 mph 10 mph 78.2% 0.00 in 381 W/m2
08:19 70.7 °F 63.7 °F 29.85 in WNW 2.3 mph 10 mph 78.4% 0.00 in 397 W/m2
08:24 71 °F 63.9 °F 29.85 in WNW 1.2 mph 10 mph 78.2% 0.00 in 411 W/m2
08:29 71.3 °F 64.1 °F 29.85 in NW 2.2 mph 10 mph 77.8% 0.00 in 432 W/m2
08:34 71.6 °F 63.6 °F 29.85 in WNW 3.1 mph 10 mph 75.8% 0.00 in 459 W/m2
08:39 71.7 °F 63.9 °F 29.85 in West 0.6 mph 10 mph 76.5% 0.00 in 462 W/m2
08:44 72 °F 64.4 °F 29.85 in WNW 3.7 mph 12 mph 77% 0.00 in 478 W/m2
08:49 72.1 °F 63.6 °F 29.85 in WNW 3.3 mph 12 mph 74.8% 0.00 in 512 W/m2
08:54 72 °F 64.2 °F 29.85 in WNW 2.9 mph 12 mph 76.3% 0.00 in 536 W/m2
08:59 72.3 °F 64.1 °F 29.85 in WNW 2.6 mph 12 mph 75.3% 0.00 in 540 W/m2
09:04 72.7 °F 64 °F 29.85 in WNW 3.3 mph 12 mph 74.1% 0.00 in 564 W/m2
09:09 72.9 °F 63.5 °F 29.85 in NW 3.2 mph 11 mph 72.5% 0.00 in 580 W/m2
09:14 72.9 °F 63.7 °F 29.85 in NW 2.1 mph 11 mph 72.8% 0.00 in 649 W/m2
09:19 73 °F 63.7 °F 29.85 in NW 1.3 mph 11 mph 72.6% 0.00 in 649 W/m2
09:24 73.1 °F 63.7 °F 29.85 in NW 2.5 mph 11 mph 72.6% 0.00 in 302 W/m2
09:29 72.6 °F 62.9 °F 29.85 in NW 2.7 mph 11 mph 71.4% 0.00 in 174 W/m2
09:34 72 °F 62.4 °F 29.85 in NW 3.9 mph 11 mph 71.8% 0.00 in 185 W/m2
09:39 71.4 °F 62.3 °F 29.85 in WNW 1.4 mph 10 mph 73% 0.00 in 213 W/m2
09:44 71 °F 62.2 °F 29.85 in NW 2.3 mph 10 mph 73.8% 0.00 in 236 W/m2
09:49 70.8 °F 62.2 °F 29.86 in NW 1.4 mph 10 mph 74% 0.00 in 151 W/m2
09:54 70.7 °F 62.4 °F 29.86 in NW 1.3 mph 10 mph 74.9% 0.00 in 144 W/m2
09:59 70.6 °F 62.3 °F 29.86 in NNW 3.1 mph 10 mph 75% 0.00 in 137 W/m2
10:04 70.5 °F 62.2 °F 29.86 in NNW 2.3 mph 10 mph 74.9% 0.00 in 239 W/m2
10:09 70.6 °F 62.7 °F 29.86 in WNW 3.7 mph 11 mph 76% 0.00 in 221 W/m2
10:14 71.1 °F 62.5 °F 29.86 in WNW 1.5 mph 11 mph 74.1% 0.00 in 304 W/m2
10:19 71.4 °F 62.8 °F 29.86 in NW 2.6 mph 13 mph 74.1% 0.00 in 185 W/m2
10:24 71.5 °F 62 °F 29.87 in WNW 4.7 mph 15 mph 72% 0.00 in 206 W/m2
10:29 71.3 °F 61.7 °F 29.87 in WNW 4.6 mph 15 mph 71.8% 0.00 in 202 W/m2
10:34 71.2 °F 62 °F 29.87 in WNW 3.3 mph 15 mph 72.6% 0.00 in 320 W/m2
10:39 71.4 °F 61.9 °F 29.87 in NW 3.4 mph 15 mph 71.9% 0.00 in 250 W/m2
10:44 71.5 °F 61.5 °F 29.87 in NW 6.1 mph 15 mph 70.7% 0.00 in 482 W/m2
10:49 71.6 °F 61.5 °F 29.87 in NNW 4.4 mph 16 mph 70.5% 0.00 in 997 W/m2
10:54 72.2 °F 62.4 °F 29.88 in NW 4.9 mph 16 mph 71.3% 0.00 in 1009 W/m2
10:59 72.6 °F 61.4 °F 29.88 in NNW 5.2 mph 16 mph 67.9% 0.00 in 570 W/m2
11:04 72.5 °F 61.5 °F 29.88 in NW 4.5 mph 16 mph 68.2% 0.00 in 570 W/m2
11:09 72.5 °F 61.5 °F 29.88 in WNW 3.4 mph 13 mph 68.2% 0.00 in 1076 W/m2
11:14 73 °F 62.4 °F 29.88 in WNW 3.5 mph 13 mph 69.5% 0.00 in 928 W/m2
11:19 74.3 °F 63.4 °F 29.88 in NW 2.8 mph 13 mph 68.8% 0.00 in 965 W/m2
11:24 75.4 °F 63 °F 29.88 in WNW 4.3 mph 13 mph 65.4% 0.00 in 983 W/m2
11:29 76 °F 63 °F 29.88 in NW 3.7 mph 13 mph 64.1% 0.00 in 1100 W/m2
11:34 76.3 °F 63 °F 29.88 in NW 3 mph 13 mph 63.5% 0.00 in 253 W/m2
11:39 76.3 °F 63.2 °F 29.88 in NW 2.6 mph 11 mph 63.9% 0.00 in 1062 W/m2
11:44 76.5 °F 63.2 °F 29.88 in WNW 3.3 mph 11 mph 63.5% 0.00 in 320 W/m2
11:49 76.6 °F 63.2 °F 29.88 in NW 3.8 mph 16 mph 63.3% 0.00 in 1111 W/m2
11:54 76.8 °F 63.2 °F 29.88 in NW 6.4 mph 16 mph 62.8% 0.00 in 1046 W/m2
11:59 77 °F 63 °F 29.88 in WNW 5.6 mph 16 mph 62% 0.00 in 1055 W/m2
12:00 77.2 °F 63.6 °F 29.88 in WNW 2 mph 16 mph 63% 0.00 in 1055 W/m2
12:09 78.2 °F 63.2 °F 29.88 in WNW 6 mph 16 mph 59.9% 0.00 in 1097 W/m2
12:14 78.2 °F 61.9 °F 29.88 in WNW 5.7 mph 16 mph 57.4% 0.00 in 1042 W/m2
12:19 77.8 °F 61.5 °F 29.88 in WNW 6.8 mph 16 mph 57.3% 0.00 in 1155 W/m2
12:24 77.6 °F 63 °F 29.88 in WNW 3.6 mph 16 mph 60.7% 0.00 in 1155 W/m2
12:29 77.8 °F 62.6 °F 29.88 in West 4.5 mph 16 mph 59.6% 0.00 in 979 W/m2
12:34 77.6 °F 61.5 °F 29.88 in WNW 6.4 mph 17 mph 57.5% 0.00 in 942 W/m2
12:39 77.4 °F 62.2 °F 29.88 in West 4.4 mph 17 mph 59.4% 0.00 in 942 W/m2
12:44 77.6 °F 62.4 °F 29.88 in NW 2.6 mph 17 mph 59.7% 0.00 in 951 W/m2
12:49 78 °F 62.6 °F 29.88 in WNW 3.7 mph 17 mph 59.3% 0.00 in 988 W/m2
12:54 78.2 °F 61.8 °F 29.88 in WNW 6.6 mph 17 mph 57.1% 0.00 in 986 W/m2
12:59 78.2 °F 62 °F 29.88 in WNW 3.8 mph 17 mph 57.4% 0.00 in 988 W/m2
13:04 78.3 °F 62 °F 29.88 in WNW 5.5 mph 17 mph 57.4% 0.00 in 998 W/m2
13:09 78.5 °F 62.7 °F 29.88 in NW 1.8 mph 14 mph 58.4% 0.00 in 958 W/m2
13:14 78.8 °F 62.5 °F 29.88 in NW 4.3 mph 16 mph 57.4% 0.00 in 954 W/m2
13:19 79 °F 62.3 °F 29.88 in WNW 5.4 mph 16 mph 56.6% 0.00 in 954 W/m2
13:24 79.1 °F 62 °F 29.88 in NW 5.2 mph 16 mph 55.7% 0.00 in 954 W/m2
13:29 79.2 °F 61.8 °F 29.88 in WNW 4.7 mph 16 mph 55.2% 0.00 in 953 W/m2
13:34 79.3 °F 62.4 °F 29.88 in WNW 3.1 mph 16 mph 56.2% 0.00 in 953 W/m2
13:39 79.5 °F 61.7 °F 29.88 in WNW 5.9 mph 15 mph 54.6% 0.00 in 953 W/m2
13:44 79.5 °F 61.6 °F 29.88 in WNW 4.5 mph 15 mph 54.5% 0.00 in 963 W/m2
13:49 79.4 °F 61.4 °F 29.88 in WNW 3.6 mph 15 mph 54.1% 0.00 in 970 W/m2
13:54 79.6 °F 62.2 °F 29.88 in WNW 4.7 mph 16 mph 55.2% 0.00 in 1005 W/m2
13:59 79.8 °F 61.7 °F 29.88 in West 3.5 mph 16 mph 54% 0.00 in 1005 W/m2
14:04 79.7 °F 62.5 °F 29.88 in WNW 2.5 mph 16 mph 55.7% 0.00 in 1065 W/m2
14:09 79.8 °F 62 °F 29.89 in WNW 3.5 mph 14 mph 54.8% 0.00 in 1060 W/m2
14:14 79.5 °F 61.9 °F 29.89 in WNW 4.4 mph 14 mph 55% 0.00 in 1113 W/m2
14:19 79.5 °F 62.5 °F 29.89 in WNW 1.2 mph 14 mph 56.2% 0.00 in 1095 W/m2
14:24 80 °F 63 °F 29.89 in NW 4.6 mph 14 mph 56.2% 0.00 in 1074 W/m2
14:29 80.1 °F 61.9 °F 29.89 in WNW 2.3 mph 14 mph 53.9% 0.00 in 691 W/m2
14:34 79.7 °F 62.2 °F 29.89 in WNW 2.5 mph 14 mph 55.1% 0.00 in 244 W/m2
14:39 79.3 °F 61.9 °F 29.89 in NW 2.4 mph 12 mph 55.3% 0.00 in 227 W/m2
14:44 79.2 °F 61.8 °F 29.89 in North 1 mph 12 mph 55.2% 0.00 in 953 W/m2
14:49 79.5 °F 62 °F 29.89 in NNW 1.2 mph 12 mph 55% 0.00 in 949 W/m2
14:54 79.7 °F 61.4 °F 29.89 in WNW 1.3 mph 12 mph 53.6% 0.00 in 916 W/m2
14:59 79.5 °F 61.7 °F 29.89 in WNW 1.2 mph 12 mph 54.7% 0.00 in 909 W/m2
15:04 79.4 °F 62.1 °F 29.89 in WNW 5.5 mph 12 mph 55.5% 0.00 in 911 W/m2
15:09 79.4 °F 61 °F 29.89 in West 4 mph 14 mph 53.6% 0.00 in 944 W/m2
15:14 79.7 °F 61.3 °F 29.89 in West 3.8 mph 14 mph 53.4% 0.00 in 991 W/m2
15:19 79.8 °F 62 °F 29.89 in NW 1.9 mph 14 mph 54.6% 0.00 in 265 W/m2
15:24 79.9 °F 62.3 °F 29.90 in NW 0.8 mph 14 mph 54.9% 0.00 in 944 W/m2
15:29 80.3 °F 61.6 °F 29.89 in NNW 1.8 mph 14 mph 53% 0.00 in 944 W/m2
15:34 80.3 °F 61.5 °F 29.90 in WNW 3.2 mph 15 mph 52.7% 0.00 in 292 W/m2
15:39 80.2 °F 61.5 °F 29.89 in NW 3.4 mph 15 mph 53% 0.00 in 842 W/m2
15:44 80.1 °F 61.3 °F 29.90 in NW 4.6 mph 15 mph 52.6% 0.00 in 896 W/m2
15:49 80.2 °F 60.9 °F 29.90 in NW 2.1 mph 15 mph 51.8% 0.00 in 269 W/m2
15:54 80.1 °F 60.9 °F 29.90 in WNW 1.6 mph 15 mph 52% 0.00 in 851 W/m2
15:59 80 °F 61.2 °F 29.90 in WNW 2.3 mph 15 mph 52.8% 0.00 in 151 W/m2
16:00 79.8 °F 60.6 °F 29.90 in WNW 0.3 mph 15 mph 52% 0.00 in 118 W/m2
16:09 79.8 °F 61.3 °F 29.90 in WNW 3.7 mph 11 mph 53.3% 0.00 in 729 W/m2
16:14 79.8 °F 61.4 °F 29.90 in NW 2.8 mph 11 mph 53.4% 0.00 in 733 W/m2
16:19 79.7 °F 61.3 °F 29.90 in NW 2 mph 11 mph 53.5% 0.00 in 714 W/m2
16:24 79.6 °F 61.5 °F 29.90 in WNW 4.2 mph 11 mph 54% 0.00 in 51 W/m2
16:29 79.6 °F 61.4 °F 29.90 in WNW 3.3 mph 11 mph 53.8% 0.00 in 47 W/m2
16:34 79.6 °F 61.5 °F 29.91 in NW 3 mph 13 mph 54% 0.00 in 53 W/m2
16:39 79.5 °F 61 °F 29.91 in WNW 4.8 mph 13 mph 53.2% 0.00 in 53 W/m2
16:44 79.4 °F 61.7 °F 29.91 in West 2 mph 13 mph 54.8% 0.00 in 51 W/m2
16:49 79.3 °F 61.4 °F 29.91 in WNW 2.9 mph 14 mph 54.2% 0.00 in 54 W/m2
16:54 79.3 °F 61.4 °F 29.91 in WSW 1.8 mph 14 mph 54.3% 0.00 in 56 W/m2
16:59 79.3 °F 61 °F 29.92 in West 3.9 mph 14 mph 53.6% 0.00 in 42 W/m2
17:04 79.3 °F 60.6 °F 29.92 in WNW 2.8 mph 14 mph 52.8% 0.00 in 40 W/m2
17:09 79.1 °F 60.5 °F 29.92 in WNW 4.5 mph 15 mph 52.8% 0.00 in 40 W/m2
17:14 79 °F 60.3 °F 29.92 in NW 3.4 mph 15 mph 52.8% 0.00 in 40 W/m2
17:19 78.9 °F 60.6 °F 29.92 in WSW 1.8 mph 15 mph 53.5% 0.00 in 39 W/m2
17:24 79 °F 60.8 °F 29.92 in WNW 3.6 mph 15 mph 53.7% 0.00 in 37 W/m2
17:29 78.9 °F 59.9 °F 29.92 in NNW 2.4 mph 15 mph 52.3% 0.00 in 35 W/m2
17:34 78.8 °F 60.1 °F 29.93 in NW 2.9 mph 15 mph 52.8% 0.00 in 35 W/m2
17:39 78.8 °F 60.1 °F 29.93 in WNW 1.7 mph 14 mph 52.8% 0.00 in 35 W/m2
17:44 78.8 °F 60.8 °F 29.93 in NW 2.2 mph 14 mph 54% 0.00 in 33 W/m2
17:49 78.8 °F 59.7 °F 29.93 in WNW 4.6 mph 14 mph 52% 0.00 in 33 W/m2
17:54 78.6 °F 59.7 °F 29.93 in WNW 2.8 mph 14 mph 52.3% 0.00 in 32 W/m2
17:59 78.4 °F 59.7 °F 29.93 in NNW 1.4 mph 14 mph 52.7% 0.00 in 32 W/m2
18:04 78.3 °F 59.6 °F 29.93 in NNW 1.7 mph 14 mph 52.8% 0.00 in 32 W/m2
18:09 78.1 °F 59.8 °F 29.93 in NW 1.2 mph 6 mph 53.5% 0.00 in 30 W/m2
18:14 77.9 °F 59.8 °F 29.93 in NW 1.1 mph 7 mph 53.8% 0.00 in 30 W/m2
18:19 77.7 °F 59.5 °F 29.93 in NW 1.8 mph 11 mph 53.5% 0.00 in 28 W/m2
18:24 77.6 °F 59.5 °F 29.94 in NW 2.3 mph 11 mph 53.7% 0.00 in 28 W/m2
18:29 77.4 °F 59.4 °F 29.94 in NW 0.8 mph 11 mph 53.8% 0.00 in 32 W/m2
18:34 77.3 °F 59.2 °F 29.94 in NW 3.2 mph 11 mph 53.6% 0.00 in 32 W/m2
18:39 77.1 °F 59.2 °F 29.94 in NW 2.3 mph 11 mph 54% 0.00 in 28 W/m2
18:44 76.9 °F 59.6 °F 29.95 in NW 0.1 mph 11 mph 55.1% 0.00 in 28 W/m2
18:49 76.7 °F 59.5 °F 29.95 in NW 1.9 mph 11 mph 55.3% 0.00 in 28 W/m2
18:54 76.6 °F 59.4 °F 29.95 in NNW 1.1 mph 11 mph 55.2% 0.00 in 25 W/m2
18:59 76.5 °F 59.6 °F 29.95 in NW 1 mph 11 mph 55.8% 0.00 in 23 W/m2
19:04 76.4 °F 59.7 °F 29.95 in NW 0.9 mph 11 mph 56.3% 0.00 in 21 W/m2
19:09 76.4 °F 60.3 °F 29.95 in NW 0.1 mph 5 mph 57.5% 0.00 in 21 W/m2
19:14 76.3 °F 60.3 °F 29.95 in NW 1.3 mph 7 mph 57.8% 0.00 in 19 W/m2
19:19 76.2 °F 60.1 °F 29.96 in NW 0.1 mph 7 mph 57.5% 0.00 in 19 W/m2
19:24 76 °F 60.4 °F 29.96 in NW 0.1 mph 7 mph 58.4% 0.00 in 18 W/m2
19:29 76 °F 60.5 °F 29.96 in Calm   7 mph 58.8% 0.00 in 16 W/m2
19:34 75.8 °F 60.5 °F 29.96 in Calm   7 mph 59% 0.00 in 14 W/m2
19:39 75.7 °F 60.3 °F 29.97 in Calm   1 mph 58.9% 0.00 in 12 W/m2
19:44 75.5 °F 60.3 °F 29.97 in Calm   1 mph 59.1% 0.00 in 11 W/m2
19:49 75.4 °F 60.5 °F 29.97 in Calm   1 mph 60% 0.00 in 9 W/m2
19:54 75.2 °F 60.4 °F 29.97 in Calm   1 mph 60% 0.00 in 7 W/m2
19:59 75 °F 60.6 °F 29.97 in Calm   1 mph 60.8% 0.00 in 0 W/m2
20:00 74.9 °F 60.6 °F 29.97 in Calm   1 mph 61% 0.00 in 0 W/m2
20:09 74.6 °F 60.8 °F 29.97 in Calm     62.1% 0.00 in 0 W/m2
20:14 74.3 °F 60.9 °F 29.97 in Calm     63% 0.00 in 0 W/m2
20:19 74 °F 61 °F 29.98 in Calm     63.9% 0.00 in 0 W/m2
20:24 73.6 °F 61 °F 29.98 in Calm     64.7% 0.00 in 0 W/m2
20:29 73.2 °F 61.2 °F 29.98 in Calm     66.1% 0.00 in 0 W/m2
20:34 72.8 °F 61.3 °F 29.98 in Calm     67.2% 0.00 in 0 W/m2
20:39 72.5 °F 61.2 °F 29.98 in Calm     67.6% 0.00 in 0 W/m2
20:44 72.3 °F 61.1 °F 29.98 in Calm     67.9% 0.00 in 0 W/m2
20:49 72.1 °F 60.9 °F 29.98 in Calm     67.8% 0.00 in 0 W/m2
20:54 72 °F 60.5 °F 29.99 in Calm     67.2% 0.00 in 0 W/m2
20:59 71.8 °F 60.3 °F 29.99 in Calm     67% 0.00 in 0 W/m2
21:04 71.7 °F 60.7 °F 29.99 in Calm     68.4% 0.00 in 0 W/m2
21:09 71.4 °F 61.1 °F 29.99 in Calm     69.9% 0.00 in 0 W/m2
21:14 71.1 °F 60.8 °F 30.00 in Calm     70% 0.00 in 0 W/m2
21:19 70.8 °F 60.8 °F 30.00 in Calm     70.8% 0.00 in 0 W/m2
21:24 70.4 °F 60.9 °F 30.00 in Calm     71.8% 0.00 in 0 W/m2
21:25 70.3 °F 60.9 °F 30.00 in Calm     72% 0.00 in 0 W/m2
21:30 69.9 °F 60.1 °F 30.00 in Calm     71% 0.00 in 0 W/m2
22:00 68.5 °F 59.9 °F 30.01 in Calm     74% 0.00 in 0 W/m2
23:00 65.9 °F 59.2 °F 30.02 in Calm     79% 0.00 in 0 W/m2
23:30 65.2 °F 57.8 °F 30.03 in Calm     77% 0.00 in 0 W/m2
Hartford County Weather
Compliments of Weather Underground - 2 mb